sensor_id;sensor_type;location;lat;lon;timestamp;temperature;humidity
25192;DHT22;13143;50.924;5.320;2024-02-23T00:00:41;9.30;99.90
25192;DHT22;13143;50.924;5.320;2024-02-23T00:03:08;9.30;99.90
25192;DHT22;13143;50.924;5.320;2024-02-23T00:05:35;9.20;99.90
25192;DHT22;13143;50.924;5.320;2024-02-23T00:08:02;9.20;99.90
25192;DHT22;13143;50.924;5.320;2024-02-23T00:10:30;9.20;99.90
25192;DHT22;13143;50.924;5.320;2024-02-23T00:12:57;9.20;99.90
25192;DHT22;13143;50.924;5.320;2024-02-23T00:15:24;9.10;99.90
25192;DHT22;13143;50.924;5.320;2024-02-23T00:17:52;9.10;99.90
25192;DHT22;13143;50.924;5.320;2024-02-23T00:20:19;9.10;99.90
25192;DHT22;13143;50.924;5.320;2024-02-23T00:22:46;9.10;99.90
25192;DHT22;13143;50.924;5.320;2024-02-23T00:25:13;9.10;99.90
25192;DHT22;13143;50.924;5.320;2024-02-23T00:27:41;9.10;99.90
25192;DHT22;13143;50.924;5.320;2024-02-23T00:30:09;9.00;99.90
25192;DHT22;13143;50.924;5.320;2024-02-23T00:32:36;9.00;99.90
25192;DHT22;13143;50.924;5.320;2024-02-23T00:35:04;9.00;99.90
25192;DHT22;13143;50.924;5.320;2024-02-23T00:37:31;8.90;99.90
25192;DHT22;13143;50.924;5.320;2024-02-23T00:40:03;9.00;99.90
25192;DHT22;13143;50.924;5.320;2024-02-23T00:42:33;8.90;99.90
25192;DHT22;13143;50.924;5.320;2024-02-23T00:45:00;8.90;99.90
25192;DHT22;13143;50.924;5.320;2024-02-23T00:47:28;8.90;99.90
25192;DHT22;13143;50.924;5.320;2024-02-23T00:49:55;8.90;99.90
25192;DHT22;13143;50.924;5.320;2024-02-23T00:52:23;8.90;99.90
25192;DHT22;13143;50.924;5.320;2024-02-23T00:54:50;8.80;99.90
25192;DHT22;13143;50.924;5.320;2024-02-23T00:57:17;8.80;99.90
25192;DHT22;13143;50.924;5.320;2024-02-23T00:59:48;8.80;99.90
25192;DHT22;13143;50.924;5.320;2024-02-23T01:02:15;8.80;99.90
25192;DHT22;13143;50.924;5.320;2024-02-23T01:04:43;8.70;99.90
25192;DHT22;13143;50.924;5.320;2024-02-23T01:07:10;8.70;99.90
25192;DHT22;13143;50.924;5.320;2024-02-23T01:09:37;8.60;99.90
25192;DHT22;13143;50.924;5.320;2024-02-23T01:12:04;8.70;99.90
25192;DHT22;13143;50.924;5.320;2024-02-23T01:14:32;8.60;99.90
25192;DHT22;13143;50.924;5.320;2024-02-23T01:16:59;8.60;99.90
25192;DHT22;13143;50.924;5.320;2024-02-23T01:19:27;8.60;99.90
25192;DHT22;13143;50.924;5.320;2024-02-23T01:21:54;8.60;99.90
25192;DHT22;13143;50.924;5.320;2024-02-23T01:24:27;8.50;99.90
25192;DHT22;13143;50.924;5.320;2024-02-23T01:26:56;8.50;99.90
25192;DHT22;13143;50.924;5.320;2024-02-23T01:29:25;8.50;99.90
25192;DHT22;13143;50.924;5.320;2024-02-23T01:31:53;8.50;99.90
25192;DHT22;13143;50.924;5.320;2024-02-23T01:34:23;8.50;99.90
25192;DHT22;13143;50.924;5.320;2024-02-23T01:36:50;8.40;99.90
25192;DHT22;13143;50.924;5.320;2024-02-23T01:39:18;8.40;99.90
25192;DHT22;13143;50.924;5.320;2024-02-23T01:41:46;8.40;99.90
25192;DHT22;13143;50.924;5.320;2024-02-23T01:44:13;8.40;99.90
25192;DHT22;13143;50.924;5.320;2024-02-23T01:46:42;8.40;99.90
25192;DHT22;13143;50.924;5.320;2024-02-23T01:49:09;8.40;99.90
25192;DHT22;13143;50.924;5.320;2024-02-23T01:51:36;8.40;99.90
25192;DHT22;13143;50.924;5.320;2024-02-23T01:54:04;8.30;99.90
25192;DHT22;13143;50.924;5.320;2024-02-23T01:56:32;8.30;99.90
25192;DHT22;13143;50.924;5.320;2024-02-23T01:59:01;8.30;99.90
25192;DHT22;13143;50.924;5.320;2024-02-23T02:01:30;8.30;99.90
25192;DHT22;13143;50.924;5.320;2024-02-23T02:03:58;8.30;99.90
25192;DHT22;13143;50.924;5.320;2024-02-23T02:06:26;8.30;99.90
25192;DHT22;13143;50.924;5.320;2024-02-23T02:08:54;8.20;99.90
25192;DHT22;13143;50.924;5.320;2024-02-23T02:11:21;8.20;99.90
25192;DHT22;13143;50.924;5.320;2024-02-23T02:13:48;8.20;99.90
25192;DHT22;13143;50.924;5.320;2024-02-23T02:16:16;8.20;99.90
25192;DHT22;13143;50.924;5.320;2024-02-23T02:18:43;8.20;99.90
25192;DHT22;13143;50.924;5.320;2024-02-23T02:21:11;8.20;99.90
25192;DHT22;13143;50.924;5.320;2024-02-23T02:23:39;8.20;99.90
25192;DHT22;13143;50.924;5.320;2024-02-23T02:26:06;8.20;99.90
25192;DHT22;13143;50.924;5.320;2024-02-23T02:28:33;8.10;99.90
25192;DHT22;13143;50.924;5.320;2024-02-23T02:31:01;8.10;99.90
25192;DHT22;13143;50.924;5.320;2024-02-23T02:33:28;8.20;99.90
25192;DHT22;13143;50.924;5.320;2024-02-23T02:35:55;8.10;99.90
25192;DHT22;13143;50.924;5.320;2024-02-23T02:38:22;8.10;99.90
25192;DHT22;13143;50.924;5.320;2024-02-23T02:40:50;8.10;99.90
25192;DHT22;13143;50.924;5.320;2024-02-23T02:43:17;8.10;99.90
25192;DHT22;13143;50.924;5.320;2024-02-23T02:45:44;8.10;99.90
25192;DHT22;13143;50.924;5.320;2024-02-23T02:48:12;8.10;99.90
25192;DHT22;13143;50.924;5.320;2024-02-23T02:50:39;8.10;99.90
25192;DHT22;13143;50.924;5.320;2024-02-23T02:53:06;8.10;99.90
25192;DHT22;13143;50.924;5.320;2024-02-23T02:55:33;8.00;99.90
25192;DHT22;13143;50.924;5.320;2024-02-23T02:58:00;8.00;99.90
25192;DHT22;13143;50.924;5.320;2024-02-23T03:00:28;8.00;99.90
25192;DHT22;13143;50.924;5.320;2024-02-23T03:02:57;8.00;99.90
25192;DHT22;13143;50.924;5.320;2024-02-23T03:05:24;8.00;99.90
25192;DHT22;13143;50.924;5.320;2024-02-23T03:07:52;8.00;99.90
25192;DHT22;13143;50.924;5.320;2024-02-23T03:10:19;8.00;99.90
25192;DHT22;13143;50.924;5.320;2024-02-23T03:12:47;8.00;99.90
25192;DHT22;13143;50.924;5.320;2024-02-23T03:15:14;7.90;99.90
25192;DHT22;13143;50.924;5.320;2024-02-23T03:17:42;7.90;99.90
25192;DHT22;13143;50.924;5.320;2024-02-23T03:20:10;7.90;99.90
25192;DHT22;13143;50.924;5.320;2024-02-23T03:22:38;7.90;99.90
25192;DHT22;13143;50.924;5.320;2024-02-23T03:25:05;7.90;99.90
25192;DHT22;13143;50.924;5.320;2024-02-23T03:27:37;7.90;99.90
25192;DHT22;13143;50.924;5.320;2024-02-23T03:30:04;7.90;99.90
25192;DHT22;13143;50.924;5.320;2024-02-23T03:32:32;7.90;99.90
25192;DHT22;13143;50.924;5.320;2024-02-23T03:35:04;7.90;99.90
25192;DHT22;13143;50.924;5.320;2024-02-23T03:37:32;7.90;99.90
25192;DHT22;13143;50.924;5.320;2024-02-23T03:39:59;7.90;99.90
25192;DHT22;13143;50.924;5.320;2024-02-23T03:42:27;7.80;99.90
25192;DHT22;13143;50.924;5.320;2024-02-23T03:44:55;7.80;99.90
25192;DHT22;13143;50.924;5.320;2024-02-23T03:47:22;7.80;99.90
25192;DHT22;13143;50.924;5.320;2024-02-23T03:49:49;7.80;99.90
25192;DHT22;13143;50.924;5.320;2024-02-23T03:52:17;7.80;99.90
25192;DHT22;13143;50.924;5.320;2024-02-23T03:54:44;7.80;99.90
25192;DHT22;13143;50.924;5.320;2024-02-23T03:57:11;7.80;99.90
25192;DHT22;13143;50.924;5.320;2024-02-23T03:59:38;7.80;99.90
25192;DHT22;13143;50.924;5.320;2024-02-23T04:02:05;7.80;99.90
25192;DHT22;13143;50.924;5.320;2024-02-23T04:04:33;7.80;99.90
25192;DHT22;13143;50.924;5.320;2024-02-23T04:07:00;7.80;99.90
25192;DHT22;13143;50.924;5.320;2024-02-23T04:09:27;7.80;99.90
25192;DHT22;13143;50.924;5.320;2024-02-23T04:11:55;7.70;99.90
25192;DHT22;13143;50.924;5.320;2024-02-23T04:14:22;7.70;99.90
25192;DHT22;13143;50.924;5.320;2024-02-23T04:16:50;7.70;99.90
25192;DHT22;13143;50.924;5.320;2024-02-23T04:19:17;7.70;99.90
25192;DHT22;13143;50.924;5.320;2024-02-23T04:21:44;7.70;99.90
25192;DHT22;13143;50.924;5.320;2024-02-23T04:24:11;7.70;99.90
25192;DHT22;13143;50.924;5.320;2024-02-23T04:26:39;7.70;99.90
25192;DHT22;13143;50.924;5.320;2024-02-23T04:29:06;7.70;99.90
25192;DHT22;13143;50.924;5.320;2024-02-23T04:31:36;7.70;99.90
25192;DHT22;13143;50.924;5.320;2024-02-23T04:34:03;7.60;99.90
25192;DHT22;13143;50.924;5.320;2024-02-23T04:36:31;7.70;99.90
25192;DHT22;13143;50.924;5.320;2024-02-23T04:38:58;7.70;99.90
25192;DHT22;13143;50.924;5.320;2024-02-23T04:41:25;7.60;99.90
25192;DHT22;13143;50.924;5.320;2024-02-23T04:43:53;7.70;99.90
25192;DHT22;13143;50.924;5.320;2024-02-23T04:46:28;7.70;99.90
25192;DHT22;13143;50.924;5.320;2024-02-23T04:48:56;7.70;99.90
25192;DHT22;13143;50.924;5.320;2024-02-23T04:51:24;7.70;99.90
25192;DHT22;13143;50.924;5.320;2024-02-23T04:53:51;7.70;99.90
25192;DHT22;13143;50.924;5.320;2024-02-23T04:56:19;7.70;99.90
25192;DHT22;13143;50.924;5.320;2024-02-23T04:58:49;7.70;99.90
25192;DHT22;13143;50.924;5.320;2024-02-23T05:01:16;7.70;99.90
25192;DHT22;13143;50.924;5.320;2024-02-23T05:03:43;7.70;99.90
25192;DHT22;13143;50.924;5.320;2024-02-23T05:06:11;7.70;99.90
25192;DHT22;13143;50.924;5.320;2024-02-23T05:08:39;7.70;99.90
25192;DHT22;13143;50.924;5.320;2024-02-23T05:11:08;7.60;99.90
25192;DHT22;13143;50.924;5.320;2024-02-23T05:13:35;7.70;99.90
25192;DHT22;13143;50.924;5.320;2024-02-23T05:16:03;7.70;99.90
25192;DHT22;13143;50.924;5.320;2024-02-23T05:18:30;7.70;99.90
25192;DHT22;13143;50.924;5.320;2024-02-23T05:20:57;7.60;99.90
25192;DHT22;13143;50.924;5.320;2024-02-23T05:23:24;7.60;99.90
25192;DHT22;13143;50.924;5.320;2024-02-23T05:25:51;7.60;99.90
25192;DHT22;13143;50.924;5.320;2024-02-23T05:28:19;7.60;99.90
25192;DHT22;13143;50.924;5.320;2024-02-23T05:30:46;7.60;99.90
25192;DHT22;13143;50.924;5.320;2024-02-23T05:33:13;7.60;99.90
25192;DHT22;13143;50.924;5.320;2024-02-23T05:35:40;7.60;99.90
25192;DHT22;13143;50.924;5.320;2024-02-23T05:38:07;7.60;99.90
25192;DHT22;13143;50.924;5.320;2024-02-23T05:40:34;7.60;99.90
25192;DHT22;13143;50.924;5.320;2024-02-23T05:43:01;7.60;99.90
25192;DHT22;13143;50.924;5.320;2024-02-23T05:45:29;7.60;99.90
25192;DHT22;13143;50.924;5.320;2024-02-23T05:47:56;7.60;99.90
25192;DHT22;13143;50.924;5.320;2024-02-23T05:50:23;7.60;99.90
25192;DHT22;13143;50.924;5.320;2024-02-23T05:52:50;7.50;99.90
25192;DHT22;13143;50.924;5.320;2024-02-23T05:55:19;7.60;99.90
25192;DHT22;13143;50.924;5.320;2024-02-23T05:57:46;7.50;99.90
25192;DHT22;13143;50.924;5.320;2024-02-23T06:00:14;7.60;99.90
25192;DHT22;13143;50.924;5.320;2024-02-23T06:02:42;7.60;99.90
25192;DHT22;13143;50.924;5.320;2024-02-23T06:05:10;7.60;99.90
25192;DHT22;13143;50.924;5.320;2024-02-23T06:07:37;7.60;99.90
25192;DHT22;13143;50.924;5.320;2024-02-23T06:10:05;7.60;99.90
25192;DHT22;13143;50.924;5.320;2024-02-23T06:12:32;7.60;99.90
25192;DHT22;13143;50.924;5.320;2024-02-23T06:15:00;7.60;99.90
25192;DHT22;13143;50.924;5.320;2024-02-23T06:17:26;7.60;99.90
25192;DHT22;13143;50.924;5.320;2024-02-23T06:19:54;7.60;99.90
25192;DHT22;13143;50.924;5.320;2024-02-23T06:22:24;7.60;99.90
25192;DHT22;13143;50.924;5.320;2024-02-23T06:24:52;7.60;99.90
25192;DHT22;13143;50.924;5.320;2024-02-23T06:27:19;7.50;99.90
25192;DHT22;13143;50.924;5.320;2024-02-23T06:29:46;7.50;99.90
25192;DHT22;13143;50.924;5.320;2024-02-23T06:32:14;7.60;99.90
25192;DHT22;13143;50.924;5.320;2024-02-23T06:34:41;7.50;99.90
25192;DHT22;13143;50.924;5.320;2024-02-23T06:37:08;7.50;99.90
25192;DHT22;13143;50.924;5.320;2024-02-23T06:39:35;7.50;99.90
25192;DHT22;13143;50.924;5.320;2024-02-23T06:42:03;7.50;99.90
25192;DHT22;13143;50.924;5.320;2024-02-23T06:44:31;7.50;99.90
25192;DHT22;13143;50.924;5.320;2024-02-23T06:46:58;7.50;99.90
25192;DHT22;13143;50.924;5.320;2024-02-23T06:49:25;7.50;99.90
25192;DHT22;13143;50.924;5.320;2024-02-23T06:51:53;7.50;99.90
25192;DHT22;13143;50.924;5.320;2024-02-23T06:54:20;7.50;99.90
25192;DHT22;13143;50.924;5.320;2024-02-23T06:56:47;7.50;99.90
25192;DHT22;13143;50.924;5.320;2024-02-23T06:59:14;7.50;99.90
25192;DHT22;13143;50.924;5.320;2024-02-23T07:01:51;7.50;99.90
25192;DHT22;13143;50.924;5.320;2024-02-23T07:04:19;7.50;99.90
25192;DHT22;13143;50.924;5.320;2024-02-23T07:06:46;7.50;99.90
25192;DHT22;13143;50.924;5.320;2024-02-23T07:09:13;7.50;99.90
25192;DHT22;13143;50.924;5.320;2024-02-23T07:11:40;7.50;99.90
25192;DHT22;13143;50.924;5.320;2024-02-23T07:14:10;7.50;99.90
25192;DHT22;13143;50.924;5.320;2024-02-23T07:16:40;7.50;99.90
25192;DHT22;13143;50.924;5.320;2024-02-23T07:19:08;7.40;99.90
25192;DHT22;13143;50.924;5.320;2024-02-23T07:21:36;7.40;99.90
25192;DHT22;13143;50.924;5.320;2024-02-23T07:24:08;7.40;99.90
25192;DHT22;13143;50.924;5.320;2024-02-23T07:26:35;7.40;99.90
25192;DHT22;13143;50.924;5.320;2024-02-23T07:29:03;7.40;99.90
25192;DHT22;13143;50.924;5.320;2024-02-23T07:31:30;7.40;99.90
25192;DHT22;13143;50.924;5.320;2024-02-23T07:33:57;7.40;99.90
25192;DHT22;13143;50.924;5.320;2024-02-23T07:36:25;7.40;99.90
25192;DHT22;13143;50.924;5.320;2024-02-23T07:38:52;7.40;99.90
25192;DHT22;13143;50.924;5.320;2024-02-23T07:41:19;7.40;99.90
25192;DHT22;13143;50.924;5.320;2024-02-23T07:43:46;7.40;99.90
25192;DHT22;13143;50.924;5.320;2024-02-23T07:46:14;7.40;99.90
25192;DHT22;13143;50.924;5.320;2024-02-23T07:48:43;7.40;99.90
25192;DHT22;13143;50.924;5.320;2024-02-23T07:51:11;7.40;99.90
25192;DHT22;13143;50.924;5.320;2024-02-23T07:53:38;7.40;99.90
25192;DHT22;13143;50.924;5.320;2024-02-23T07:56:07;7.50;99.90
25192;DHT22;13143;50.924;5.320;2024-02-23T07:58:35;7.50;99.90
25192;DHT22;13143;50.924;5.320;2024-02-23T08:01:02;7.50;99.90
25192;DHT22;13143;50.924;5.320;2024-02-23T08:03:29;7.50;99.90
25192;DHT22;13143;50.924;5.320;2024-02-23T08:05:57;7.50;99.90
25192;DHT22;13143;50.924;5.320;2024-02-23T08:08:28;7.50;99.90
25192;DHT22;13143;50.924;5.320;2024-02-23T08:10:59;7.50;99.90
25192;DHT22;13143;50.924;5.320;2024-02-23T08:13:27;7.50;99.90
25192;DHT22;13143;50.924;5.320;2024-02-23T08:15:54;7.50;99.90
25192;DHT22;13143;50.924;5.320;2024-02-23T08:18:21;7.50;99.90
25192;DHT22;13143;50.924;5.320;2024-02-23T08:20:53;7.50;99.90
25192;DHT22;13143;50.924;5.320;2024-02-23T08:23:20;7.50;99.90
25192;DHT22;13143;50.924;5.320;2024-02-23T08:25:50;7.50;99.90
25192;DHT22;13143;50.924;5.320;2024-02-23T08:28:17;7.50;99.90
25192;DHT22;13143;50.924;5.320;2024-02-23T08:30:44;7.50;99.90
25192;DHT22;13143;50.924;5.320;2024-02-23T08:33:12;7.50;99.90
25192;DHT22;13143;50.924;5.320;2024-02-23T08:35:38;7.50;99.90
25192;DHT22;13143;50.924;5.320;2024-02-23T08:38:06;7.60;99.90
25192;DHT22;13143;50.924;5.320;2024-02-23T08:40:34;7.60;99.90
25192;DHT22;13143;50.924;5.320;2024-02-23T08:43:01;7.60;99.90
25192;DHT22;13143;50.924;5.320;2024-02-23T08:45:29;7.60;99.90
25192;DHT22;13143;50.924;5.320;2024-02-23T08:47:56;7.60;99.90
25192;DHT22;13143;50.924;5.320;2024-02-23T08:50:23;7.60;99.90
25192;DHT22;13143;50.924;5.320;2024-02-23T08:52:50;7.60;99.90
25192;DHT22;13143;50.924;5.320;2024-02-23T08:55:17;7.60;99.90
25192;DHT22;13143;50.924;5.320;2024-02-23T08:57:45;7.60;99.90
25192;DHT22;13143;50.924;5.320;2024-02-23T09:00:13;7.70;99.90
25192;DHT22;13143;50.924;5.320;2024-02-23T09:02:44;7.70;99.90
25192;DHT22;13143;50.924;5.320;2024-02-23T09:05:11;7.70;99.90
25192;DHT22;13143;50.924;5.320;2024-02-23T09:07:39;7.70;99.90
25192;DHT22;13143;50.924;5.320;2024-02-23T09:10:07;7.70;99.90
25192;DHT22;13143;50.924;5.320;2024-02-23T09:12:35;7.80;99.90
25192;DHT22;13143;50.924;5.320;2024-02-23T09:15:02;7.80;99.90
25192;DHT22;13143;50.924;5.320;2024-02-23T09:17:29;7.80;99.90
25192;DHT22;13143;50.924;5.320;2024-02-23T09:19:57;7.80;99.90
25192;DHT22;13143;50.924;5.320;2024-02-23T09:22:24;7.80;99.90
25192;DHT22;13143;50.924;5.320;2024-02-23T09:24:51;7.80;99.90
25192;DHT22;13143;50.924;5.320;2024-02-23T09:27:20;7.90;99.90
25192;DHT22;13143;50.924;5.320;2024-02-23T09:29:48;7.80;99.90
25192;DHT22;13143;50.924;5.320;2024-02-23T09:32:15;7.90;99.90
25192;DHT22;13143;50.924;5.320;2024-02-23T09:34:42;7.90;99.90
25192;DHT22;13143;50.924;5.320;2024-02-23T09:37:10;7.90;99.90
25192;DHT22;13143;50.924;5.320;2024-02-23T09:39:37;7.90;99.90
25192;DHT22;13143;50.924;5.320;2024-02-23T09:42:10;8.00;99.90
25192;DHT22;13143;50.924;5.320;2024-02-23T09:44:37;8.00;99.90
25192;DHT22;13143;50.924;5.320;2024-02-23T09:47:07;8.00;99.90
25192;DHT22;13143;50.924;5.320;2024-02-23T09:49:39;8.00;99.90
25192;DHT22;13143;50.924;5.320;2024-02-23T09:52:08;8.10;99.90
25192;DHT22;13143;50.924;5.320;2024-02-23T09:54:37;8.10;99.90
25192;DHT22;13143;50.924;5.320;2024-02-23T09:57:08;8.10;99.90
25192;DHT22;13143;50.924;5.320;2024-02-23T09:59:36;8.10;99.90
25192;DHT22;13143;50.924;5.320;2024-02-23T10:02:14;8.10;99.90
25192;DHT22;13143;50.924;5.320;2024-02-23T10:04:42;8.10;99.90
25192;DHT22;13143;50.924;5.320;2024-02-23T10:07:16;8.20;99.90
25192;DHT22;13143;50.924;5.320;2024-02-23T10:09:46;8.20;99.90
25192;DHT22;13143;50.924;5.320;2024-02-23T10:12:13;8.20;99.90
25192;DHT22;13143;50.924;5.320;2024-02-23T10:14:42;8.20;99.90
25192;DHT22;13143;50.924;5.320;2024-02-23T10:17:09;8.30;99.90
25192;DHT22;13143;50.924;5.320;2024-02-23T10:19:36;8.30;99.90
25192;DHT22;13143;50.924;5.320;2024-02-23T10:22:05;8.30;99.90
25192;DHT22;13143;50.924;5.320;2024-02-23T10:24:32;8.30;99.90
25192;DHT22;13143;50.924;5.320;2024-02-23T10:27:00;8.40;99.90
25192;DHT22;13143;50.924;5.320;2024-02-23T10:29:30;8.40;99.90
25192;DHT22;13143;50.924;5.320;2024-02-23T10:31:57;8.40;99.90
25192;DHT22;13143;50.924;5.320;2024-02-23T10:34:27;8.40;99.90
25192;DHT22;13143;50.924;5.320;2024-02-23T10:36:56;8.30;99.90
25192;DHT22;13143;50.924;5.320;2024-02-23T10:39:24;8.40;99.90
25192;DHT22;13143;50.924;5.320;2024-02-23T10:42:03;8.40;99.90
25192;DHT22;13143;50.924;5.320;2024-02-23T10:44:31;8.40;99.90
25192;DHT22;13143;50.924;5.320;2024-02-23T10:46:58;8.40;99.90
25192;DHT22;13143;50.924;5.320;2024-02-23T10:49:31;8.50;99.90
25192;DHT22;13143;50.924;5.320;2024-02-23T10:51:58;8.40;99.90
25192;DHT22;13143;50.924;5.320;2024-02-23T10:54:26;8.50;99.90
25192;DHT22;13143;50.924;5.320;2024-02-23T10:56:53;8.40;99.90
25192;DHT22;13143;50.924;5.320;2024-02-23T10:59:23;8.50;99.90
25192;DHT22;13143;50.924;5.320;2024-02-23T11:01:54;8.50;99.90
25192;DHT22;13143;50.924;5.320;2024-02-23T11:04:26;8.50;99.90
25192;DHT22;13143;50.924;5.320;2024-02-23T11:06:57;8.50;99.90
25192;DHT22;13143;50.924;5.320;2024-02-23T11:09:26;8.60;99.90
25192;DHT22;13143;50.924;5.320;2024-02-23T11:11:55;8.60;99.90
25192;DHT22;13143;50.924;5.320;2024-02-23T11:14:50;8.60;99.90
25192;DHT22;13143;50.924;5.320;2024-02-23T11:17:20;8.60;99.90
25192;DHT22;13143;50.924;5.320;2024-02-23T11:19:51;8.70;99.90
25192;DHT22;13143;50.924;5.320;2024-02-23T11:22:26;8.70;99.90
25192;DHT22;13143;50.924;5.320;2024-02-23T11:25:05;8.70;99.90
25192;DHT22;13143;50.924;5.320;2024-02-23T11:27:34;8.70;99.90
25192;DHT22;13143;50.924;5.320;2024-02-23T11:30:05;8.80;99.90
25192;DHT22;13143;50.924;5.320;2024-02-23T11:32:58;8.80;99.90
25192;DHT22;13143;50.924;5.320;2024-02-23T11:35:27;8.80;99.90
25192;DHT22;13143;50.924;5.320;2024-02-23T11:37:56;8.80;99.90
25192;DHT22;13143;50.924;5.320;2024-02-23T11:40:32;8.80;99.90
25192;DHT22;13143;50.924;5.320;2024-02-23T11:42:59;8.80;99.90
25192;DHT22;13143;50.924;5.320;2024-02-23T11:45:30;8.80;99.90
25192;DHT22;13143;50.924;5.320;2024-02-23T11:47:58;8.80;99.90
25192;DHT22;13143;50.924;5.320;2024-02-23T11:50:27;8.80;99.90
25192;DHT22;13143;50.924;5.320;2024-02-23T11:52:54;8.80;99.90
25192;DHT22;13143;50.924;5.320;2024-02-23T11:55:22;8.90;99.90
25192;DHT22;13143;50.924;5.320;2024-02-23T11:57:50;8.90;99.90
25192;DHT22;13143;50.924;5.320;2024-02-23T12:00:31;8.90;99.90
25192;DHT22;13143;50.924;5.320;2024-02-23T12:02:58;8.90;99.90
25192;DHT22;13143;50.924;5.320;2024-02-23T12:05:26;9.00;99.90
25192;DHT22;13143;50.924;5.320;2024-02-23T12:07:55;9.00;99.90
25192;DHT22;13143;50.924;5.320;2024-02-23T12:10:23;9.00;99.90
25192;DHT22;13143;50.924;5.320;2024-02-23T12:12:50;8.90;99.90
25192;DHT22;13143;50.924;5.320;2024-02-23T12:15:18;9.00;99.90
25192;DHT22;13143;50.924;5.320;2024-02-23T12:17:49;9.00;99.90
25192;DHT22;13143;50.924;5.320;2024-02-23T12:20:17;9.00;99.90
25192;DHT22;13143;50.924;5.320;2024-02-23T12:22:45;9.00;99.90
25192;DHT22;13143;50.924;5.320;2024-02-23T12:25:14;9.00;99.90
25192;DHT22;13143;50.924;5.320;2024-02-23T12:27:42;9.10;99.90
25192;DHT22;13143;50.924;5.320;2024-02-23T12:30:16;9.00;99.90
25192;DHT22;13143;50.924;5.320;2024-02-23T12:32:44;9.10;99.90
25192;DHT22;13143;50.924;5.320;2024-02-23T12:35:12;9.00;99.90
25192;DHT22;13143;50.924;5.320;2024-02-23T12:37:40;9.10;99.90
25192;DHT22;13143;50.924;5.320;2024-02-23T12:40:11;9.10;99.90
25192;DHT22;13143;50.924;5.320;2024-02-23T12:42:39;9.10;99.90
25192;DHT22;13143;50.924;5.320;2024-02-23T12:45:06;9.10;99.90
25192;DHT22;13143;50.924;5.320;2024-02-23T12:47:33;9.10;99.90
25192;DHT22;13143;50.924;5.320;2024-02-23T12:50:01;9.10;99.90
25192;DHT22;13143;50.924;5.320;2024-02-23T12:52:29;9.10;99.90
25192;DHT22;13143;50.924;5.320;2024-02-23T12:54:56;9.10;99.90
25192;DHT22;13143;50.924;5.320;2024-02-23T12:57:23;9.10;99.90
25192;DHT22;13143;50.924;5.320;2024-02-23T12:59:51;9.20;99.90
25192;DHT22;13143;50.924;5.320;2024-02-23T13:02:18;9.20;99.90
25192;DHT22;13143;50.924;5.320;2024-02-23T13:04:46;9.20;99.90
25192;DHT22;13143;50.924;5.320;2024-02-23T13:07:16;9.20;99.90
25192;DHT22;13143;50.924;5.320;2024-02-23T13:09:44;9.20;99.90
25192;DHT22;13143;50.924;5.320;2024-02-23T13:12:11;9.20;99.90
25192;DHT22;13143;50.924;5.320;2024-02-23T13:14:39;9.20;99.90
25192;DHT22;13143;50.924;5.320;2024-02-23T13:17:06;9.30;99.90
25192;DHT22;13143;50.924;5.320;2024-02-23T13:19:33;9.20;99.90
25192;DHT22;13143;50.924;5.320;2024-02-23T13:22:00;9.30;99.90
25192;DHT22;13143;50.924;5.320;2024-02-23T13:24:28;9.30;99.90
25192;DHT22;13143;50.924;5.320;2024-02-23T13:26:55;9.30;99.90
25192;DHT22;13143;50.924;5.320;2024-02-23T13:29:22;9.20;99.90
25192;DHT22;13143;50.924;5.320;2024-02-23T13:31:49;9.20;99.90
25192;DHT22;13143;50.924;5.320;2024-02-23T13:34:16;9.30;99.90
25192;DHT22;13143;50.924;5.320;2024-02-23T13:36:45;9.30;99.90
25192;DHT22;13143;50.924;5.320;2024-02-23T13:39:12;9.30;99.90
25192;DHT22;13143;50.924;5.320;2024-02-23T13:41:40;9.40;99.90
25192;DHT22;13143;50.924;5.320;2024-02-23T13:44:07;9.40;99.90
25192;DHT22;13143;50.924;5.320;2024-02-23T13:46:38;9.40;99.90
25192;DHT22;13143;50.924;5.320;2024-02-23T13:49:07;9.40;99.90
25192;DHT22;13143;50.924;5.320;2024-02-23T13:51:36;9.40;99.90
25192;DHT22;13143;50.924;5.320;2024-02-23T13:54:04;9.40;99.90
25192;DHT22;13143;50.924;5.320;2024-02-23T13:56:31;9.40;99.90
25192;DHT22;13143;50.924;5.320;2024-02-23T13:58:59;9.40;99.90
25192;DHT22;13143;50.924;5.320;2024-02-23T14:01:26;9.40;99.90
25192;DHT22;13143;50.924;5.320;2024-02-23T14:03:53;9.40;99.90
25192;DHT22;13143;50.924;5.320;2024-02-23T14:06:21;9.40;99.90
25192;DHT22;13143;50.924;5.320;2024-02-23T14:08:48;9.40;99.90
25192;DHT22;13143;50.924;5.320;2024-02-23T14:11:16;9.50;99.90
25192;DHT22;13143;50.924;5.320;2024-02-23T14:13:43;9.50;99.90
25192;DHT22;13143;50.924;5.320;2024-02-23T14:16:14;9.50;99.90
25192;DHT22;13143;50.924;5.320;2024-02-23T14:18:42;9.50;99.90
25192;DHT22;13143;50.924;5.320;2024-02-23T14:21:11;9.50;99.90
25192;DHT22;13143;50.924;5.320;2024-02-23T14:23:40;9.50;99.90
25192;DHT22;13143;50.924;5.320;2024-02-23T14:26:09;9.50;99.90
25192;DHT22;13143;50.924;5.320;2024-02-23T14:28:36;9.50;99.90
25192;DHT22;13143;50.924;5.320;2024-02-23T14:31:03;9.60;99.90
25192;DHT22;13143;50.924;5.320;2024-02-23T14:33:31;9.50;99.90
25192;DHT22;13143;50.924;5.320;2024-02-23T14:35:59;9.50;99.90
25192;DHT22;13143;50.924;5.320;2024-02-23T14:38:26;9.60;99.90
25192;DHT22;13143;50.924;5.320;2024-02-23T14:40:53;9.50;99.90
25192;DHT22;13143;50.924;5.320;2024-02-23T14:43:21;9.50;99.90
25192;DHT22;13143;50.924;5.320;2024-02-23T14:45:48;9.50;99.90
25192;DHT22;13143;50.924;5.320;2024-02-23T14:48:15;9.50;99.90
25192;DHT22;13143;50.924;5.320;2024-02-23T14:50:42;9.60;99.90
25192;DHT22;13143;50.924;5.320;2024-02-23T14:53:10;9.60;99.90
25192;DHT22;13143;50.924;5.320;2024-02-23T14:55:38;9.60;99.90
25192;DHT22;13143;50.924;5.320;2024-02-23T14:58:08;9.60;99.90
25192;DHT22;13143;50.924;5.320;2024-02-23T15:00:35;9.60;99.90
25192;DHT22;13143;50.924;5.320;2024-02-23T15:03:04;9.60;99.90
25192;DHT22;13143;50.924;5.320;2024-02-23T15:05:31;9.60;99.90
25192;DHT22;13143;50.924;5.320;2024-02-23T15:07:59;9.60;99.90
25192;DHT22;13143;50.924;5.320;2024-02-23T15:10:26;9.60;99.90
25192;DHT22;13143;50.924;5.320;2024-02-23T15:12:54;9.60;99.90
25192;DHT22;13143;50.924;5.320;2024-02-23T15:15:22;9.60;99.90
25192;DHT22;13143;50.924;5.320;2024-02-23T15:17:49;9.60;99.90
25192;DHT22;13143;50.924;5.320;2024-02-23T15:20:16;9.60;99.90
25192;DHT22;13143;50.924;5.320;2024-02-23T15:22:44;9.60;99.90
25192;DHT22;13143;50.924;5.320;2024-02-23T15:25:14;9.60;99.90
25192;DHT22;13143;50.924;5.320;2024-02-23T15:27:42;9.60;99.90
25192;DHT22;13143;50.924;5.320;2024-02-23T15:30:09;9.60;99.90
25192;DHT22;13143;50.924;5.320;2024-02-23T15:32:37;9.60;99.90
25192;DHT22;13143;50.924;5.320;2024-02-23T15:35:05;9.60;99.90
25192;DHT22;13143;50.924;5.320;2024-02-23T15:37:33;9.70;99.90
25192;DHT22;13143;50.924;5.320;2024-02-23T15:40:00;9.60;99.90
25192;DHT22;13143;50.924;5.320;2024-02-23T15:42:30;9.70;99.90
25192;DHT22;13143;50.924;5.320;2024-02-23T15:44:57;9.70;99.90
25192;DHT22;13143;50.924;5.320;2024-02-23T15:47:25;9.60;99.90
25192;DHT22;13143;50.924;5.320;2024-02-23T15:49:52;9.70;99.90